Time;durP1;ratioP1;P1;durP2;ratioP2;P2;SDS_P1;SDS_P2;PMS_P1;PMS_P2;Temp;Humidity;BMP_temperature;BMP_pressure;BME280_temperature;BME280_humidity;BME280_pressure;Samples;Min_cycle;Max_cycle;Signal;HPM_P1;HPM_P2
2022/05/01 00:01:55;;;;;;;;;12.25;11.50;;;;;;;;5026732;28;52889;-58
2022/05/01 00:04:20;;;;;;;;;13.25;13.00;;;;;;;;5026999;28;51274;-57
2022/05/01 00:06:46;;;;;;;;;11.25;10.75;;;;;;;;5030406;28;51187;-57
2022/05/01 00:09:11;;;;;;;;;14.00;13.00;;;;;;;;5013564;28;51118;-57
2022/05/01 00:11:37;;;;;;;;;11.00;11.00;;;;;;;;5023304;28;51118;-57
2022/05/01 00:14:02;;;;;;;;;12.00;11.75;;;;;;;;5010213;28;51277;-57
2022/05/01 00:16:27;;;;;;;;;12.75;12.00;;;;;;;;5027470;28;51237;-59
2022/05/01 00:18:53;;;;;;;;;13.00;12.00;;;;;;;;5035506;28;51222;-57
2022/05/01 00:21:18;;;;;;;;;12.00;11.00;;;;;;;;5029976;28;51141;-57
2022/05/01 00:23:43;;;;;;;;;15.25;12.00;;;;;;;;5028912;28;51267;-58
2022/05/01 00:26:09;;;;;;;;;15.50;12.75;;;;;;;;5026139;28;51909;-57
2022/05/01 00:28:37;;;;;;;;;15.75;14.00;;;;;;;;5030885;28;51164;-56
2022/05/01 00:31:05;;;;;;;;;13.25;11.75;;;;;;;;5030396;28;51049;-58
2022/05/01 00:36:26;;;;;;;;;16.50;14.00;;;;;;;;5025342;28;51430;-57
2022/05/01 00:39:02;;;;;;;;;13.00;12.00;;;;;;;;5020455;28;51296;-57
2022/05/01 00:41:28;;;;;;;;;11.75;11.75;;;;;;;;5031560;28;51101;-57
2022/05/01 00:43:56;;;;;;;;;14.00;13.00;;;;;;;;5028938;28;51097;-57
2022/05/01 00:46:23;;;;;;;;;13.00;13.00;;;;;;;;5028959;28;52336;-56
2022/05/01 00:48:48;;;;;;;;;13.25;12.25;;;;;;;;5031282;28;50965;-56
2022/05/01 00:51:13;;;;;;;;;17.75;15.75;;;;;;;;5029505;28;51108;-57
2022/05/01 00:53:39;;;;;;;;;15.25;11.25;;;;;;;;5028339;28;51097;-58
2022/05/01 00:56:05;;;;;;;;;13.75;13.50;;;;;;;;5025664;28;53240;-58
2022/05/01 00:58:30;;;;;;;;;15.00;14.25;;;;;;;;5032687;28;51047;-57
2022/05/01 01:00:56;;;;;;;;;11.00;11.00;;;;;;;;5019898;28;51218;-57
2022/05/01 01:03:21;;;;;;;;;11.00;11.00;;;;;;;;5030196;28;51129;-57
2022/05/01 01:05:47;;;;;;;;;17.33;17.33;;;;;;;;5025939;28;52957;-56
2022/05/01 01:08:12;;;;;;;;;12.25;12.25;;;;;;;;5030214;28;51174;-57
2022/05/01 01:10:37;;;;;;;;;16.75;15.75;;;;;;;;5027718;28;51008;-58
2022/05/01 01:13:02;;;;;;;;;10.75;10.25;;;;;;;;5028285;28;51045;-58
2022/05/01 01:15:31;;;;;;;;;16.75;15.25;;;;;;;;5011108;28;52657;-57
2022/05/01 01:17:57;;;;;;;;;17.75;16.00;;;;;;;;5025350;28;51195;-56
2022/05/01 01:20:24;;;;;;;;;14.75;14.75;;;;;;;;5030285;28;51406;-55
2022/05/01 01:22:50;;;;;;;;;13.00;12.75;;;;;;;;5008397;28;50888;-57
2022/05/01 01:25:17;;;;;;;;;18.50;16.00;;;;;;;;5029921;28;52422;-57
2022/05/01 01:27:42;;;;;;;;;16.00;15.00;;;;;;;;5038503;28;51519;-57
2022/05/01 01:32:52;;;;;;;;;15.75;12.50;;;;;;;;5030382;28;51058;-58
2022/05/01 01:35:18;;;;;;;;;16.00;12.00;;;;;;;;5011661;28;52828;-57
2022/05/01 01:37:45;;;;;;;;;12.00;11.75;;;;;;;;5021319;28;51238;-58
2022/05/01 01:40:12;;;;;;;;;13.25;13.25;;;;;;;;5037958;28;51221;-57
2022/05/01 01:42:39;;;;;;;;;16.75;16.00;;;;;;;;5010755;28;51100;-57
2022/05/01 01:45:04;;;;;;;;;18.25;14.75;;;;;;;;5030587;28;51884;-57
2022/05/01 01:47:30;;;;;;;;;16.00;15.00;;;;;;;;5017453;28;51467;-57
2022/05/01 01:49:55;;;;;;;;;16.50;16.50;;;;;;;;5014936;28;51403;-57
2022/05/01 01:52:20;;;;;;;;;17.50;15.50;;;;;;;;5027280;28;51328;-58
2022/05/01 01:54:45;;;;;;;;;10.50;10.00;;;;;;;;5031634;28;51231;-57
2022/05/01 01:57:11;;;;;;;;;17.75;17.00;;;;;;;;5030218;28;51067;-55
2022/05/01 01:59:36;;;;;;;;;12.25;11.50;;;;;;;;5030343;28;51277;-58
2022/05/01 02:02:01;;;;;;;;;16.25;15.25;;;;;;;;5027453;28;51155;-57
2022/05/01 02:04:26;;;;;;;;;16.75;15.75;;;;;;;;5017054;28;51912;-57
2022/05/01 02:06:51;;;;;;;;;17.25;16.25;;;;;;;;5021042;28;50958;-56
2022/05/01 02:09:18;;;;;;;;;15.00;15.00;;;;;;;;5026783;28;51109;-57
2022/05/01 02:11:43;;;;;;;;;19.00;18.25;;;;;;;;5020975;28;51405;-57
2022/05/01 02:14:10;;;;;;;;;14.75;14.00;;;;;;;;5026206;28;51200;-57
2022/05/01 02:16:35;;;;;;;;;17.25;16.25;;;;;;;;5029894;28;51123;-58
2022/05/01 02:19:01;;;;;;;;;20.25;17.50;;;;;;;;5029907;28;51216;-58
2022/05/01 02:21:40;;;;;;;;;19.25;16.50;;;;;;;;5027195;28;51092;-56
2022/05/01 02:24:08;;;;;;;;;18.50;16.75;;;;;;;;5027701;28;51123;-58
2022/05/01 02:26:35;;;;;;;;;16.00;16.00;;;;;;;;5029103;28;51021;-57
2022/05/01 02:29:02;;;;;;;;;12.25;11.25;;;;;;;;5009440;28;51153;-57
2022/05/01 02:31:27;;;;;;;;;15.75;15.25;;;;;;;;5028025;28;51455;-55
2022/05/01 02:33:52;;;;;;;;;16.50;16.00;;;;;;;;5030105;28;51311;-58
2022/05/01 02:36:18;;;;;;;;;21.00;20.00;;;;;;;;5021698;28;51972;-58
2022/05/01 02:38:44;;;;;;;;;16.75;16.75;;;;;;;;5029567;28;51247;-56
2022/05/01 02:41:09;;;;;;;;;15.00;15.00;;;;;;;;5028309;28;52347;-56
2022/05/01 02:43:35;;;;;;;;;20.25;17.75;;;;;;;;5027415;28;51073;-57
2022/05/01 02:46:00;;;;;;;;;18.50;15.75;;;;;;;;5029251;28;52376;-56
2022/05/01 02:48:25;;;;;;;;;17.75;16.75;;;;;;;;5030391;28;52232;-57
2022/05/01 02:50:50;;;;;;;;;16.50;16.50;;;;;;;;5029690;28;51259;-57
2022/05/01 02:53:15;;;;;;;;;14.00;11.00;;;;;;;;5028176;28;51061;-54
2022/05/01 02:55:41;;;;;;;;;18.50;18.25;;;;;;;;5029343;28;51181;-58
2022/05/01 02:58:06;;;;;;;;;16.75;14.75;;;;;;;;5030664;28;51081;-56
2022/05/01 03:00:31;;;;;;;;;16.00;16.00;;;;;;;;5009146;28;51369;-56
2022/05/01 03:02:56;;;;;;;;;14.75;14.00;;;;;;;;5028910;28;51806;-58
2022/05/01 03:05:24;;;;;;;;;22.00;20.75;;;;;;;;5029650;28;51155;-58
2022/05/01 03:07:49;;;;;;;;;20.25;17.00;;;;;;;;5026368;28;51160;-57
2022/05/01 03:10:14;;;;;;;;;11.75;10.75;;;;;;;;5029252;28;51276;-57
2022/05/01 03:12:39;;;;;;;;;22.25;18.25;;;;;;;;5029776;28;51845;-58
2022/05/01 03:15:05;;;;;;;;;15.50;14.50;;;;;;;;5029048;28;51108;-57
2022/05/01 03:22:10;;;;;;;;;18.50;16.25;;;;;;;;5028553;28;51232;-58
2022/05/01 03:23:00;;;;;;;;;19.75;18.25;;;;;;;;5032597;28;51111;-58
2022/05/01 03:25:25;;;;;;;;;17.50;15.50;;;;;;;;5034755;28;51177;-58
2022/05/01 03:27:52;;;;;;;;;21.50;18.25;;;;;;;;5024813;28;51639;-57
2022/05/01 03:30:19;;;;;;;;;17.75;15.25;;;;;;;;5033138;28;51060;-57
2022/05/01 03:32:45;;;;;;;;;21.00;20.00;;;;;;;;5012709;28;52798;-57
2022/05/01 03:35:10;;;;;;;;;18.00;15.50;;;;;;;;5034678;28;51189;-58
2022/05/01 03:37:36;;;;;;;;;18.75;18.25;;;;;;;;5028203;28;51208;-58
2022/05/01 03:40:01;;;;;;;;;20.00;19.25;;;;;;;;5027664;28;51134;-57
2022/05/01 03:42:27;;;;;;;;;20.75;19.25;;;;;;;;5029037;28;51207;-61
2022/05/01 03:44:52;;;;;;;;;21.75;20.00;;;;;;;;5033921;28;51158;-57
2022/05/01 03:47:17;;;;;;;;;15.00;14.25;;;;;;;;5036427;28;51105;-58
2022/05/01 03:49:43;;;;;;;;;19.00;17.75;;;;;;;;5038923;28;51111;-58
2022/05/01 03:52:08;;;;;;;;;20.50;15.50;;;;;;;;5030533;28;51727;-57
2022/05/01 03:54:33;;;;;;;;;19.50;18.25;;;;;;;;5029512;28;52320;-58
2022/05/01 03:56:59;;;;;;;;;19.25;18.50;;;;;;;;5030642;28;51183;-58
2022/05/01 03:59:24;;;;;;;;;21.50;19.50;;;;;;;;5028631;28;51285;-58
2022/05/01 04:01:49;;;;;;;;;21.00;16.75;;;;;;;;5027808;28;52326;-57
2022/05/01 04:04:14;;;;;;;;;19.25;17.50;;;;;;;;5030188;28;51068;-57
2022/05/01 04:06:39;;;;;;;;;20.75;18.50;;;;;;;;5029991;28;51142;-56
2022/05/01 04:09:05;;;;;;;;;19.75;19.50;;;;;;;;5027262;28;51323;-57
2022/05/01 04:11:30;;;;;;;;;18.50;17.75;;;;;;;;5026376;28;51651;-56
2022/05/01 04:13:55;;;;;;;;;27.25;22.00;;;;;;;;5033421;28;51180;-58
2022/05/01 04:16:20;;;;;;;;;22.00;20.25;;;;;;;;5029559;28;51267;-57
2022/05/01 04:18:46;;;;;;;;;23.00;21.00;;;;;;;;5030749;28;50953;-57
2022/05/01 04:21:13;;;;;;;;;24.75;22.50;;;;;;;;5023630;28;51486;-55
2022/05/01 04:23:38;;;;;;;;;18.00;16.75;;;;;;;;5029520;28;50848;-59
2022/05/01 04:26:04;;;;;;;;;21.75;20.50;;;;;;;;5027926;28;51141;-57
2022/05/01 04:28:29;;;;;;;;;20.75;19.75;;;;;;;;5029128;28;51343;-57
2022/05/01 04:30:55;;;;;;;;;22.50;17.25;;;;;;;;5027360;28;52809;-57
2022/05/01 04:33:20;;;;;;;;;12.75;12.50;;;;;;;;5028755;28;51644;-58
2022/05/01 04:35:47;;;;;;;;;19.50;17.00;;;;;;;;5027320;28;51643;-57
2022/05/01 04:38:17;;;;;;;;;21.25;20.25;;;;;;;;5004954;28;51106;-56
2022/05/01 04:40:46;;;;;;;;;21.25;19.25;;;;;;;;5002294;28;52619;-55
2022/05/01 04:43:12;;;;;;;;;19.00;17.75;;;;;;;;5027995;28;51166;-57
2022/05/01 04:45:40;;;;;;;;;26.00;20.50;;;;;;;;5026479;28;51100;-56
2022/05/01 04:48:05;;;;;;;;;20.75;17.50;;;;;;;;5015848;28;51444;-57
2022/05/01 04:50:31;;;;;;;;;19.50;17.00;;;;;;;;5026058;28;52138;-57
2022/05/01 04:52:57;;;;;;;;;21.25;20.75;;;;;;;;5010925;28;51106;-58
2022/05/01 04:55:22;;;;;;;;;22.00;21.50;;;;;;;;5029396;28;50930;-58
2022/05/01 04:57:49;;;;;;;;;24.50;21.25;;;;;;;;5028038;28;51524;-57
2022/05/01 05:00:14;;;;;;;;;23.50;22.25;;;;;;;;5031856;28;52047;-57
2022/05/01 05:02:44;;;;;;;;;26.25;21.00;;;;;;;;5030134;28;51084;-56
2022/05/01 05:05:10;;;;;;;;;22.75;21.75;;;;;;;;5024991;28;51138;-58
2022/05/01 05:07:35;;;;;;;;;25.00;24.75;;;;;;;;5029419;28;51428;-57
2022/05/01 05:10:01;;;;;;;;;20.25;19.00;;;;;;;;5024125;28;52009;-57
2022/05/01 05:12:26;;;;;;;;;27.25;23.25;;;;;;;;5028781;28;51046;-57
2022/05/01 05:14:54;;;;;;;;;24.75;22.00;;;;;;;;5011113;28;51068;-56
2022/05/01 05:17:19;;;;;;;;;24.50;20.75;;;;;;;;5026839;28;50952;-57
2022/05/01 05:19:48;;;;;;;;;23.00;20.25;;;;;;;;5031006;28;50986;-60
2022/05/01 05:22:14;;;;;;;;;20.50;20.25;;;;;;;;5014667;28;51246;-55
2022/05/01 05:24:39;;;;;;;;;23.25;21.50;;;;;;;;5028775;28;51139;-57
2022/05/01 05:27:05;;;;;;;;;20.75;20.75;;;;;;;;5031659;28;52774;-57
2022/05/01 05:29:30;;;;;;;;;23.00;21.25;;;;;;;;5014253;28;51862;-58
2022/05/01 05:31:55;;;;;;;;;23.00;22.25;;;;;;;;5029134;28;51214;-56
2022/05/01 05:34:20;;;;;;;;;24.25;22.50;;;;;;;;5011524;28;51868;-57
2022/05/01 05:36:45;;;;;;;;;18.00;18.00;;;;;;;;5027603;28;51282;-58
2022/05/01 05:39:11;;;;;;;;;24.00;20.50;;;;;;;;5030898;28;51178;-57
2022/05/01 05:41:36;;;;;;;;;25.50;24.00;;;;;;;;5020729;28;51109;-58
2022/05/01 05:44:01;;;;;;;;;22.25;20.75;;;;;;;;5032619;28;51371;-58
2022/05/01 05:46:27;;;;;;;;;23.00;22.00;;;;;;;;5030152;28;50974;-56
2022/05/01 05:48:52;;;;;;;;;22.00;21.25;;;;;;;;5027299;28;51629;-56
2022/05/01 05:51:17;;;;;;;;;24.00;23.75;;;;;;;;5028601;28;51097;-57
2022/05/01 05:53:42;;;;;;;;;23.75;22.75;;;;;;;;5037316;28;51172;-57
2022/05/01 05:56:08;;;;;;;;;18.25;17.50;;;;;;;;5030974;28;51375;-56
2022/05/01 05:58:33;;;;;;;;;17.25;17.25;;;;;;;;5015172;28;52275;-57
2022/05/01 06:00:58;;;;;;;;;21.50;21.50;;;;;;;;5026960;28;51125;-56
2022/05/01 06:03:23;;;;;;;;;21.25;20.50;;;;;;;;5032456;28;51073;-56
2022/05/01 06:05:48;;;;;;;;;22.25;22.00;;;;;;;;5022737;28;51282;-56
2022/05/01 06:08:15;;;;;;;;;27.00;25.00;;;;;;;;5029584;28;52006;-57
2022/05/01 06:10:40;;;;;;;;;21.75;20.75;;;;;;;;5030337;28;51023;-57
2022/05/01 06:13:05;;;;;;;;;25.50;25.50;;;;;;;;5030558;28;51036;-56
2022/05/01 06:15:31;;;;;;;;;25.75;25.00;;;;;;;;5030973;28;51103;-56
2022/05/01 06:17:56;;;;;;;;;26.25;23.75;;;;;;;;5030374;28;51734;-58
2022/05/01 06:20:21;;;;;;;;;27.50;26.25;;;;;;;;5031871;28;51056;-58
2022/05/01 06:22:53;;;;;;;;;26.75;25.25;;;;;;;;5027656;28;51015;-58
2022/05/01 06:25:18;;;;;;;;;27.25;25.00;;;;;;;;5026444;28;51102;-58
2022/05/01 06:27:43;;;;;;;;;26.25;25.00;;;;;;;;5025754;28;51089;-57
2022/05/01 06:30:12;;;;;;;;;29.00;28.00;;;;;;;;5030013;28;51066;-57
2022/05/01 06:32:41;;;;;;;;;27.25;25.50;;;;;;;;5030046;28;51425;-57
2022/05/01 06:35:07;;;;;;;;;30.75;28.75;;;;;;;;5030886;28;50967;-57
2022/05/01 06:37:37;;;;;;;;;28.75;27.25;;;;;;;;5026955;28;52045;-57
2022/05/01 06:40:03;;;;;;;;;31.75;30.75;;;;;;;;5023460;28;51622;-57
2022/05/01 06:42:29;;;;;;;;;31.25;29.25;;;;;;;;5029827;28;50909;-58
2022/05/01 06:44:54;;;;;;;;;25.75;25.00;;;;;;;;5030023;28;51383;-58
2022/05/01 06:47:19;;;;;;;;;29.75;25.25;;;;;;;;5010043;28;53957;-57
2022/05/01 06:49:44;;;;;;;;;24.75;24.50;;;;;;;;5030977;28;51297;-58
2022/05/01 06:52:09;;;;;;;;;29.00;27.25;;;;;;;;5026083;28;51286;-58
2022/05/01 06:54:35;;;;;;;;;30.75;27.50;;;;;;;;5025791;28;51107;-58
2022/05/01 06:57:00;;;;;;;;;29.50;29.25;;;;;;;;5023893;28;51947;-57
2022/05/01 06:59:25;;;;;;;;;27.75;26.00;;;;;;;;5012016;28;51074;-57
2022/05/01 07:01:50;;;;;;;;;28.25;26.00;;;;;;;;5022578;28;52951;-57
2022/05/01 07:04:15;;;;;;;;;27.00;24.50;;;;;;;;5026964;28;51234;-57
2022/05/01 07:06:42;;;;;;;;;27.25;26.25;;;;;;;;5025952;28;51693;-58
2022/05/01 07:09:07;;;;;;;;;25.00;23.50;;;;;;;;5021665;28;51180;-58
2022/05/01 07:11:32;;;;;;;;;26.75;25.50;;;;;;;;5025487;28;50958;-57
2022/05/01 07:13:58;;;;;;;;;26.50;26.00;;;;;;;;5023640;28;51013;-58
2022/05/01 07:16:23;;;;;;;;;25.75;25.50;;;;;;;;5018949;28;51244;-59
2022/05/01 07:18:48;;;;;;;;;29.00;26.25;;;;;;;;5026018;28;51276;-62
2022/05/01 07:21:13;;;;;;;;;26.00;24.75;;;;;;;;5027604;28;50902;-58
2022/05/01 07:23:39;;;;;;;;;31.25;26.25;;;;;;;;5020449;28;51120;-57
2022/05/01 07:26:04;;;;;;;;;25.00;25.00;;;;;;;;5025744;28;51908;-58
2022/05/01 07:28:29;;;;;;;;;31.25;27.00;;;;;;;;5014796;28;51765;-58
2022/05/01 07:30:54;;;;;;;;;25.25;24.25;;;;;;;;5026016;28;50927;-57
2022/05/01 07:33:20;;;;;;;;;26.25;26.25;;;;;;;;5027447;28;51054;-58
2022/05/01 07:35:46;;;;;;;;;25.25;24.00;;;;;;;;5027797;28;52786;-58
2022/05/01 07:38:11;;;;;;;;;26.25;25.50;;;;;;;;5023898;28;51388;-58
2022/05/01 07:40:36;;;;;;;;;28.75;28.00;;;;;;;;5041711;28;51254;-58
2022/05/01 07:43:02;;;;;;;;;23.50;23.00;;;;;;;;5035332;28;50886;-59
2022/05/01 07:45:27;;;;;;;;;29.75;28.00;;;;;;;;5034692;28;51196;-60
2022/05/01 07:47:53;;;;;;;;;26.50;25.75;;;;;;;;5025874;28;50970;-59
2022/05/01 07:50:18;;;;;;;;;26.25;24.50;;;;;;;;5026236;28;51130;-60
2022/05/01 07:52:43;;;;;;;;;20.25;19.25;;;;;;;;5024963;28;51368;-59
2022/05/01 07:55:09;;;;;;;;;26.50;25.25;;;;;;;;5027369;28;51717;-57
2022/05/01 07:57:34;;;;;;;;;26.00;24.25;;;;;;;;5031159;28;51009;-60
2022/05/01 07:59:59;;;;;;;;;24.25;23.50;;;;;;;;5030507;28;51178;-58
2022/05/01 08:02:32;;;;;;;;;24.50;22.75;;;;;;;;5027441;28;51171;-58
2022/05/01 08:04:57;;;;;;;;;23.00;21.75;;;;;;;;5026740;28;51103;-58
2022/05/01 08:07:22;;;;;;;;;26.50;21.00;;;;;;;;5013893;28;51438;-57
2022/05/01 08:09:48;;;;;;;;;21.67;20.33;;;;;;;;5027656;28;51205;-58
2022/05/01 08:12:13;;;;;;;;;24.25;22.75;;;;;;;;5029885;28;51436;-58
2022/05/01 08:14:41;;;;;;;;;26.25;24.00;;;;;;;;5014713;28;51913;-57
2022/05/01 08:17:07;;;;;;;;;22.00;21.75;;;;;;;;5022617;28;51080;-59
2022/05/01 08:22:19;;;;;;;;;22.67;21.67;;;;;;;;5032032;28;51150;-58
2022/05/01 08:24:44;;;;;;;;;26.25;24.50;;;;;;;;5029821;28;51169;-57
2022/05/01 08:27:09;;;;;;;;;23.33;22.33;;;;;;;;5029152;28;51073;-50
2022/05/01 08:29:35;;;;;;;;;19.00;19.00;;;;;;;;5030457;28;51221;-52
2022/05/01 08:32:10;;;;;;;;;22.75;22.00;;;;;;;;5032580;28;50853;-55
2022/05/01 08:34:35;;;;;;;;;24.25;23.50;;;;;;;;5028727;28;51695;-51
2022/05/01 08:37:03;;;;;;;;;21.50;20.50;;;;;;;;5014422;28;51256;-51
2022/05/01 08:39:29;;;;;;;;;16.00;15.00;;;;;;;;5029224;28;51307;-50
2022/05/01 08:41:54;;;;;;;;;20.33;19.00;;;;;;;;5029257;28;52569;-53
2022/05/01 08:44:31;;;;;;;;;26.75;24.75;;;;;;;;5032195;28;52242;-53
2022/05/01 08:49:42;;;;;;;;;20.50;20.50;;;;;;;;5032897;28;51208;-52
2022/05/01 08:52:08;;;;;;;;;22.75;22.00;;;;;;;;5032970;28;51032;-51
2022/05/01 08:54:33;;;;;;;;;22.25;22.25;;;;;;;;5021384;28;53269;-53
2022/05/01 08:57:00;;;;;;;;;22.33;21.00;;;;;;;;5029856;28;51259;-52
2022/05/01 08:59:25;;;;;;;;;23.00;20.00;;;;;;;;5028383;28;51171;-53
2022/05/01 09:01:52;;;;;;;;;22.00;21.33;;;;;;;;5032390;28;51192;-52
2022/05/01 09:04:18;;;;;;;;;23.50;21.25;;;;;;;;5031112;28;51605;-53
2022/05/01 09:06:44;;;;;;;;;22.50;21.25;;;;;;;;5029773;28;51346;-50
2022/05/01 09:09:10;;;;;;;;;20.33;19.67;;;;;;;;5028959;28;51424;-50
2022/05/01 09:14:21;;;;;;;;;22.00;21.00;;;;;;;;5028262;28;51627;-52
2022/05/01 09:17:05;;;;;;;;;23.25;22.50;;;;;;;;5030181;28;51138;-50
2022/05/01 09:19:30;;;;;;;;;21.33;19.67;;;;;;;;5031049;28;51414;-52
2022/05/01 09:21:55;;;;;;;;;22.75;22.00;;;;;;;;5020254;28;51390;-52
2022/05/01 09:24:28;;;;;;;;;18.67;18.67;;;;;;;;5033447;28;52999;-53
2022/05/01 09:26:54;;;;;;;;;23.00;21.00;;;;;;;;5026608;28;51202;-52
2022/05/01 09:29:23;;;;;;;;;21.00;19.33;;;;;;;;5028787;28;51302;-54
2022/05/01 09:31:52;;;;;;;;;22.00;20.75;;;;;;;;5034794;28;51177;-53
2022/05/01 09:34:23;;;;;;;;;20.75;20.25;;;;;;;;5038944;28;51991;-51
2022/05/01 09:36:48;;;;;;;;;24.50;22.50;;;;;;;;5032979;28;50917;-50
2022/05/01 09:39:16;;;;;;;;;22.25;21.25;;;;;;;;5037964;28;51040;-53
2022/05/01 09:41:42;;;;;;;;;22.25;21.75;;;;;;;;5028079;28;51074;-53
2022/05/01 09:44:14;;;;;;;;;19.75;19.75;;;;;;;;5038839;28;51132;-51
2022/05/01 09:46:40;;;;;;;;;24.00;23.75;;;;;;;;5022157;28;51755;-52
2022/05/01 09:49:06;;;;;;;;;21.25;20.00;;;;;;;;5033238;28;50961;-55
2022/05/01 09:51:33;;;;;;;;;20.25;19.00;;;;;;;;5028672;28;51121;-52
2022/05/01 09:53:58;;;;;;;;;19.00;19.00;;;;;;;;5039826;28;52128;-54
2022/05/01 09:56:24;;;;;;;;;19.00;18.50;;;;;;;;5036278;28;51370;-51
2022/05/01 09:58:59;;;;;;;;;19.25;18.00;;;;;;;;5043266;28;51127;-53
2022/05/01 10:01:25;;;;;;;;;21.00;20.75;;;;;;;;5028082;28;51121;-50
2022/05/01 10:03:52;;;;;;;;;21.25;21.00;;;;;;;;5031313;28;51828;-54
2022/05/01 10:06:18;;;;;;;;;17.50;16.75;;;;;;;;5032188;28;53008;-53
2022/05/01 10:08:43;;;;;;;;;18.33;18.00;;;;;;;;5032009;28;51235;-51
2022/05/01 10:11:10;;;;;;;;;19.25;19.00;;;;;;;;5029149;28;51174;-54
2022/05/01 10:13:35;;;;;;;;;19.00;18.00;;;;;;;;5036345;28;53711;-51
2022/05/01 10:16:03;;;;;;;;;20.00;18.75;;;;;;;;5032237;28;50849;-54
2022/05/01 10:18:29;;;;;;;;;23.50;21.50;;;;;;;;5032489;28;51210;-52
2022/05/01 10:20:54;;;;;;;;;14.00;14.00;;;;;;;;5020861;28;51125;-54
2022/05/01 10:23:20;;;;;;;;;20.00;19.25;;;;;;;;5023345;28;51158;-51
2022/05/01 10:25:51;;;;;;;;;15.25;14.00;;;;;;;;5038486;28;51207;-51
2022/05/01 10:28:16;;;;;;;;;21.25;19.75;;;;;;;;5030486;28;51117;-50
2022/05/01 10:33:41;;;;;;;;;20.50;19.50;;;;;;;;5028733;28;51141;-50
2022/05/01 10:36:22;;;;;;;;;20.50;17.00;;;;;;;;5037798;28;51148;-53
2022/05/01 10:38:53;;;;;;;;;16.25;14.75;;;;;;;;5031795;28;50956;-50
2022/05/01 10:41:18;;;;;;;;;19.25;18.25;;;;;;;;5032395;28;51513;-53
2022/05/01 10:43:57;;;;;;;;;17.75;17.75;;;;;;;;5029992;28;51906;-52
2022/05/01 10:46:22;;;;;;;;;20.50;18.50;;;;;;;;5029654;28;51075;-52
2022/05/01 10:48:48;;;;;;;;;17.00;16.67;;;;;;;;5019532;28;51092;-51
2022/05/01 10:51:39;;;;;;;;;19.00;18.25;;;;;;;;5026141;28;51167;-51
2022/05/01 10:54:17;;;;;;;;;21.50;21.50;;;;;;;;5011952;28;52169;-54
2022/05/01 10:56:43;;;;;;;;;20.00;17.75;;;;;;;;5023625;28;51788;-55
2022/05/01 10:59:27;;;;;;;;;17.75;17.50;;;;;;;;5026360;28;51265;-54
2022/05/01 11:01:56;;;;;;;;;16.75;16.00;;;;;;;;5024940;28;51203;-54
2022/05/01 11:04:22;;;;;;;;;22.75;19.75;;;;;;;;5023942;28;52584;-53
2022/05/01 11:06:54;;;;;;;;;18.50;17.75;;;;;;;;5028504;28;51029;-54
2022/05/01 11:09:19;;;;;;;;;16.00;15.00;;;;;;;;5026724;28;51152;-53
2022/05/01 11:11:45;;;;;;;;;16.75;16.75;;;;;;;;5028288;28;51304;-53
2022/05/01 11:14:12;;;;;;;;;19.50;18.75;;;;;;;;5010939;28;53354;-53
2022/05/01 11:16:51;;;;;;;;;19.50;18.00;;;;;;;;5027716;28;51155;-54
2022/05/01 11:19:17;;;;;;;;;15.00;14.75;;;;;;;;5020843;28;51343;-53
2022/05/01 11:21:48;;;;;;;;;19.25;19.00;;;;;;;;5026038;28;51038;-51
2022/05/01 11:24:15;;;;;;;;;21.50;21.25;;;;;;;;5029743;28;51925;-52
2022/05/01 11:27:00;;;;;;;;;22.75;22.00;;;;;;;;5028384;28;51231;-54
2022/05/01 11:29:25;;;;;;;;;20.33;18.67;;;;;;;;5024388;28;50998;-51
2022/05/01 11:31:51;;;;;;;;;24.25;22.25;;;;;;;;5024781;28;51141;-53
2022/05/01 11:34:21;;;;;;;;;19.25;18.75;;;;;;;;5025907;28;52090;-53
2022/05/01 11:36:53;;;;;;;;;16.00;16.00;;;;;;;;5027089;28;52303;-53
2022/05/01 11:39:22;;;;;;;;;22.00;19.00;;;;;;;;5026245;28;51165;-54
2022/05/01 11:41:59;;;;;;;;;16.00;16.00;;;;;;;;5030730;28;51211;-50
2022/05/01 11:44:25;;;;;;;;;17.25;16.50;;;;;;;;5029177;28;52099;-52
2022/05/01 11:46:51;;;;;;;;;18.00;16.75;;;;;;;;5022055;28;51973;-54
2022/05/01 11:49:17;;;;;;;;;17.75;16.00;;;;;;;;5021699;28;51152;-53
2022/05/01 11:51:44;;;;;;;;;19.75;19.25;;;;;;;;5027803;28;51392;-50
2022/05/01 11:54:10;;;;;;;;;15.50;15.00;;;;;;;;5027119;28;52067;-52
2022/05/01 12:04:48;;;;;;;;;17.33;17.00;;;;;;;;5020376;28;52495;-52
2022/05/01 12:07:15;;;;;;;;;15.00;15.00;;;;;;;;5018419;28;51247;-54
2022/05/01 12:09:41;;;;;;;;;19.50;17.75;;;;;;;;5018759;28;51417;-51
2022/05/01 12:12:08;;;;;;;;;17.00;17.00;;;;;;;;5017727;28;51395;-53
2022/05/01 12:14:33;;;;;;;;;16.75;14.75;;;;;;;;5018265;28;51432;-53
2022/05/01 12:16:58;;;;;;;;;19.00;18.75;;;;;;;;5009216;28;51966;-53
2022/05/01 12:19:34;;;;;;;;;19.00;18.25;;;;;;;;5015915;28;52016;-54
2022/05/01 12:21:59;;;;;;;;;20.50;19.25;;;;;;;;4997781;28;51469;-53
2022/05/01 12:24:25;;;;;;;;;18.75;18.00;;;;;;;;5018289;28;52823;-55
2022/05/01 12:26:54;;;;;;;;;20.75;19.75;;;;;;;;5016756;28;51908;-55
2022/05/01 12:29:20;;;;;;;;;20.00;18.50;;;;;;;;5014675;28;51522;-55
2022/05/01 12:31:55;;;;;;;;;12.67;12.33;;;;;;;;5012362;28;51485;-55
2022/05/01 12:34:27;;;;;;;;;14.25;13.25;;;;;;;;5010720;28;53553;-54
2022/05/01 12:36:59;;;;;;;;;18.25;17.00;;;;;;;;5015001;28;51490;-52
2022/05/01 12:39:25;;;;;;;;;18.50;16.25;;;;;;;;5017876;28;51462;-54
2022/05/01 12:45:02;;;;;;;;;17.00;17.00;;;;;;;;5016514;28;51342;-55
2022/05/01 12:47:31;;;;;;;;;17.25;17.25;;;;;;;;5014647;28;51278;-53
2022/05/01 12:49:56;;;;;;;;;16.00;16.00;;;;;;;;5017112;28;51451;-52
2022/05/01 12:52:38;;;;;;;;;14.67;14.00;;;;;;;;5010996;28;51606;-50
2022/05/01 12:55:07;;;;;;;;;16.33;16.33;;;;;;;;5015340;28;52639;-58
2022/05/01 12:57:36;;;;;;;;;18.50;17.25;;;;;;;;5014969;28;51343;-53
2022/05/01 13:00:03;;;;;;;;;16.50;16.00;;;;;;;;5018767;28;51601;-54
2022/05/01 13:02:28;;;;;;;;;19.00;18.00;;;;;;;;5013572;28;51385;-53
2022/05/01 13:05:02;;;;;;;;;17.25;17.25;;;;;;;;5017020;28;52386;-54
2022/05/01 13:07:28;;;;;;;;;19.50;18.25;;;;;;;;5016236;28;51221;-54
2022/05/01 13:09:54;;;;;;;;;18.50;18.25;;;;;;;;5001109;28;51864;-53
2022/05/01 13:12:30;;;;;;;;;15.00;15.00;;;;;;;;5011588;28;51455;-54
2022/05/01 13:14:57;;;;;;;;;16.00;13.67;;;;;;;;5019533;28;52908;-53
2022/05/01 13:17:23;;;;;;;;;17.00;16.00;;;;;;;;5018029;28;51261;-54
2022/05/01 13:19:48;;;;;;;;;15.00;14.33;;;;;;;;5020176;28;51484;-55
2022/05/01 13:22:13;;;;;;;;;12.33;11.33;;;;;;;;5016611;28;51515;-57
2022/05/01 13:24:40;;;;;;;;;14.00;14.00;;;;;;;;5018636;28;52634;-57
2022/05/01 13:27:06;;;;;;;;;16.00;16.00;;;;;;;;5018893;28;52025;-56
2022/05/01 13:29:32;;;;;;;;;16.50;16.00;;;;;;;;5019906;28;51288;-55
2022/05/01 13:31:59;;;;;;;;;14.00;13.33;;;;;;;;5018916;28;51405;-57
2022/05/01 13:34:24;;;;;;;;;13.33;13.33;;;;;;;;5014511;28;53048;-54
2022/05/01 13:36:49;;;;;;;;;15.00;15.00;;;;;;;;5012955;28;51736;-56
2022/05/01 13:39:15;;;;;;;;;17.50;16.75;;;;;;;;4994722;28;51622;-58
2022/05/01 13:47:08;;;;;;;;;6.00;5.00;;;;;;;;5013608;28;51391;-57
2022/05/01 13:49:34;;;;;;;;;12.33;12.33;;;;;;;;5012511;28;51139;-56
2022/05/01 13:51:59;;;;;;;;;14.75;14.25;;;;;;;;5020405;28;51252;-56
2022/05/01 13:54:25;;;;;;;;;11.33;11.33;;;;;;;;5019439;28;51175;-56
2022/05/01 13:56:50;;;;;;;;;15.00;12.50;;;;;;;;5004306;28;51365;-56
2022/05/01 13:59:16;;;;;;;;;14.75;12.75;;;;;;;;5022645;28;51204;-55
2022/05/01 14:01:42;;;;;;;;;14.50;13.75;;;;;;;;4997182;28;51356;-56
2022/05/01 14:04:07;;;;;;;;;10.67;10.67;;;;;;;;5021618;28;51896;-57
2022/05/01 14:06:32;;;;;;;;;12.00;11.33;;;;;;;;5018834;28;51229;-56
2022/05/01 14:08:58;;;;;;;;;14.33;12.67;;;;;;;;5019297;28;51236;-58
2022/05/01 14:11:25;;;;;;;;;11.75;11.75;;;;;;;;5013808;28;51184;-54
2022/05/01 14:13:50;;;;;;;;;13.50;13.50;;;;;;;;5019742;28;51231;-54
2022/05/01 14:16:17;;;;;;;;;12.25;12.00;;;;;;;;5019671;28;51212;-59
2022/05/01 14:18:44;;;;;;;;;12.75;12.00;;;;;;;;5015798;28;51386;-56
2022/05/01 14:21:11;;;;;;;;;14.25;14.25;;;;;;;;5018120;28;52283;-56
2022/05/01 14:23:39;;;;;;;;;15.25;14.50;;;;;;;;5020171;28;51244;-55
2022/05/01 14:26:04;;;;;;;;;12.75;12.75;;;;;;;;5015532;28;51410;-57
2022/05/01 14:28:30;;;;;;;;;15.50;14.25;;;;;;;;5013778;28;51307;-55
2022/05/01 14:30:59;;;;;;;;;12.75;12.00;;;;;;;;5017700;28;51673;-56
2022/05/01 14:33:34;;;;;;;;;13.00;13.00;;;;;;;;5014201;28;51863;-58
2022/05/01 14:36:00;;;;;;;;;12.25;10.75;;;;;;;;4999760;28;51148;-57
2022/05/01 14:38:29;;;;;;;;;11.25;11.25;;;;;;;;5016623;28;51163;-58
2022/05/01 14:40:57;;;;;;;;;9.33;9.00;;;;;;;;5022012;28;51077;-58
2022/05/01 14:43:23;;;;;;;;;9.25;9.25;;;;;;;;5016186;28;51216;-56
2022/05/01 14:45:57;;;;;;;;;11.25;10.75;;;;;;;;5010654;28;51173;-57
2022/05/01 14:48:28;;;;;;;;;13.25;12.75;;;;;;;;5015488;28;51391;-56
2022/05/01 14:50:54;;;;;;;;;14.25;13.50;;;;;;;;5017789;28;51628;-55